sensor_id;sensor_type;location;lat;lon;timestamp;pressure;altitude;pressure_sealevel;temperature;humidity
69411;BME280;56604;48.652;9.194;2023-04-29T00:00:18;95931.69;;;12.54;100.00
69411;BME280;56604;48.652;9.194;2023-04-29T00:02:43;95935.91;;;12.55;100.00
69411;BME280;56604;48.652;9.194;2023-04-29T00:05:09;95928.00;;;12.55;100.00
69411;BME280;56604;48.652;9.194;2023-04-29T00:07:34;95929.03;;;12.54;100.00
69411;BME280;56604;48.652;9.194;2023-04-29T00:10:00;95925.38;;;12.55;100.00
69411;BME280;56604;48.652;9.194;2023-04-29T00:12:26;95924.31;;;12.51;100.00
69411;BME280;56604;48.652;9.194;2023-04-29T00:14:52;95922.22;;;12.48;100.00
69411;BME280;56604;48.652;9.194;2023-04-29T00:17:18;95919.03;;;12.51;100.00
69411;BME280;56604;48.652;9.194;2023-04-29T00:19:43;95922.19;;;12.53;100.00
69411;BME280;56604;48.652;9.194;2023-04-29T00:22:09;95919.03;;;12.51;100.00
69411;BME280;56604;48.652;9.194;2023-04-29T00:24:34;95915.91;;;12.44;100.00
69411;BME280;56604;48.652;9.194;2023-04-29T00:27:00;95926.41;;;12.49;100.00
69411;BME280;56604;48.652;9.194;2023-04-29T00:29:26;95920.91;;;12.41;100.00
69411;BME280;56604;48.652;9.194;2023-04-29T00:31:52;95918.00;;;12.47;100.00
69411;BME280;56604;48.652;9.194;2023-04-29T00:34:17;95921.72;;;12.41;100.00
69411;BME280;56604;48.652;9.194;2023-04-29T00:36:43;95921.16;;;12.49;100.00
69411;BME280;56604;48.652;9.194;2023-04-29T00:39:08;95921.16;;;12.49;100.00
69411;BME280;56604;48.652;9.194;2023-04-29T00:41:34;95914.53;;;12.52;100.00
69411;BME280;56604;48.652;9.194;2023-04-29T00:43:59;95914.84;;;12.45;100.00
69411;BME280;56604;48.652;9.194;2023-04-29T00:46:25;95918.00;;;12.52;100.00
69411;BME280;56604;48.652;9.194;2023-04-29T00:48:50;95928.03;;;12.45;100.00
69411;BME280;56604;48.652;9.194;2023-04-29T00:51:16;95926.16;;;12.46;100.00
69411;BME280;56604;48.652;9.194;2023-04-29T00:53:42;95926.44;;;12.44;100.00
69411;BME280;56604;48.652;9.194;2023-04-29T00:56:08;95927.78;;;12.42;100.00
69411;BME280;56604;48.652;9.194;2023-04-29T00:58:34;95931.72;;;12.44;100.00
69411;BME280;56604;48.652;9.194;2023-04-29T01:01:01;95930.41;;;12.36;100.00
69411;BME280;56604;48.652;9.194;2023-04-29T01:03:28;95932.28;;;12.36;100.00
69411;BME280;56604;48.652;9.194;2023-04-29T01:06:08;95935.69;;;12.36;100.00
69411;BME280;56604;48.652;9.194;2023-04-29T01:09:05;95937.53;;;12.36;100.00
69411;BME280;56604;48.652;9.194;2023-04-29T01:11:48;95931.75;;;12.34;100.00
69411;BME280;56604;48.652;9.194;2023-04-29T01:14:17;95928.31;;;12.33;100.00
69411;BME280;56604;48.652;9.194;2023-04-29T01:16:51;95933.84;;;12.37;100.00
69411;BME280;56604;48.652;9.194;2023-04-29T01:22:01;95930.16;;;12.33;100.00
69411;BME280;56604;48.652;9.194;2023-04-29T01:24:26;95933.59;;;12.33;100.00
69411;BME280;56604;48.652;9.194;2023-04-29T01:26:56;95925.94;;;12.32;100.00
69411;BME280;56604;48.652;9.194;2023-04-29T01:32:04;95936.47;;;12.32;100.00
69411;BME280;56604;48.652;9.194;2023-04-29T01:34:34;95935.16;;;12.34;100.00
69411;BME280;56604;48.652;9.194;2023-04-29T01:37:04;95924.38;;;12.31;100.00
69411;BME280;56604;48.652;9.194;2023-04-29T01:39:45;95928.84;;;12.25;100.00
69411;BME280;56604;48.652;9.194;2023-04-29T01:42:29;95928.59;;;12.27;100.00
69411;BME280;56604;48.652;9.194;2023-04-29T01:45:00;95933.88;;;12.11;100.00
69411;BME280;56604;48.652;9.194;2023-04-29T01:47:29;95929.69;;;12.10;99.99
69411;BME280;56604;48.652;9.194;2023-04-29T01:49:55;95940.75;;;12.02;100.00
69411;BME280;56604;48.652;9.194;2023-04-29T01:52:20;95925.47;;;12.04;100.00
69411;BME280;56604;48.652;9.194;2023-04-29T01:54:47;95933.91;;;12.01;100.00
69411;BME280;56604;48.652;9.194;2023-04-29T01:57:12;95931.28;;;11.91;100.00
69411;BME280;56604;48.652;9.194;2023-04-29T01:59:37;95930.25;;;11.87;100.00
69411;BME280;56604;48.652;9.194;2023-04-29T02:02:03;95932.31;;;11.75;100.00
69411;BME280;56604;48.652;9.194;2023-04-29T02:04:28;95934.69;;;11.71;100.00
69411;BME280;56604;48.652;9.194;2023-04-29T02:06:57;95930.19;;;11.66;100.00
69411;BME280;56604;48.652;9.194;2023-04-29T02:09:22;95926.50;;;11.57;100.00
69411;BME280;56604;48.652;9.194;2023-04-29T02:11:48;95926.50;;;11.57;100.00
69411;BME280;56604;48.652;9.194;2023-04-29T02:14:13;95924.41;;;11.59;100.00
69411;BME280;56604;48.652;9.194;2023-04-29T02:16:38;95925.47;;;11.53;100.00
69411;BME280;56604;48.652;9.194;2023-04-29T02:19:04;95925.44;;;11.48;100.00
69411;BME280;56604;48.652;9.194;2023-04-29T02:21:29;95930.72;;;11.48;100.00
69411;BME280;56604;48.652;9.194;2023-04-29T02:23:55;95925.97;;;11.45;100.00
69411;BME280;56604;48.652;9.194;2023-04-29T02:26:21;95936.25;;;11.41;100.00
69411;BME280;56604;48.652;9.194;2023-04-29T02:28:46;95936.47;;;11.35;100.00
69411;BME280;56604;48.652;9.194;2023-04-29T02:31:11;95932.81;;;11.31;100.00
69411;BME280;56604;48.652;9.194;2023-04-29T02:33:37;95931.19;;;11.30;100.00
69411;BME280;56604;48.652;9.194;2023-04-29T02:36:03;95929.38;;;11.25;100.00
69411;BME280;56604;48.652;9.194;2023-04-29T02:38:28;95938.59;;;11.28;100.00
69411;BME280;56604;48.652;9.194;2023-04-29T02:40:53;95932.00;;;11.25;100.00
69411;BME280;56604;48.652;9.194;2023-04-29T02:43:19;95932.78;;;11.20;100.00
69411;BME280;56604;48.652;9.194;2023-04-29T02:45:44;95933.03;;;11.14;100.00
69411;BME280;56604;48.652;9.194;2023-04-29T02:48:09;95934.34;;;11.11;100.00
69411;BME280;56604;48.652;9.194;2023-04-29T02:50:35;95939.84;;;11.10;100.00
69411;BME280;56604;48.652;9.194;2023-04-29T02:53:00;95938.03;;;11.10;100.00
69411;BME280;56604;48.652;9.194;2023-04-29T02:55:25;95931.69;;;11.06;100.00
69411;BME280;56604;48.652;9.194;2023-04-29T02:57:51;95931.41;;;11.02;100.00
69411;BME280;56604;48.652;9.194;2023-04-29T03:00:17;95939.56;;;11.01;100.00
69411;BME280;56604;48.652;9.194;2023-04-29T03:02:42;95935.34;;;11.00;100.00
69411;BME280;56604;48.652;9.194;2023-04-29T03:05:07;95937.47;;;11.03;100.00
69411;BME280;56604;48.652;9.194;2023-04-29T03:07:33;95941.16;;;11.02;100.00
69411;BME280;56604;48.652;9.194;2023-04-29T03:09:58;95931.66;;;11.01;100.00
69411;BME280;56604;48.652;9.194;2023-04-29T03:12:23;95932.19;;;10.98;100.00
69411;BME280;56604;48.652;9.194;2023-04-29T03:14:49;95939.28;;;10.97;100.00
69411;BME280;56604;48.652;9.194;2023-04-29T03:17:15;95935.84;;;10.92;100.00
69411;BME280;56604;48.652;9.194;2023-04-29T03:19:41;95938.47;;;10.87;100.00
69411;BME280;56604;48.652;9.194;2023-04-29T03:22:06;95942.66;;;10.83;100.00
69411;BME280;56604;48.652;9.194;2023-04-29T03:24:36;95940.78;;;10.78;100.00
69411;BME280;56604;48.652;9.194;2023-04-29T03:27:01;95936.59;;;10.77;100.00
69411;BME280;56604;48.652;9.194;2023-04-29T03:29:28;95935.84;;;10.82;100.00
69411;BME280;56604;48.652;9.194;2023-04-29T03:31:54;95934.78;;;10.83;100.00
69411;BME280;56604;48.652;9.194;2023-04-29T03:34:21;95935.56;;;10.83;100.00
69411;BME280;56604;48.652;9.194;2023-04-29T03:36:46;95940.56;;;10.79;100.00
69411;BME280;56604;48.652;9.194;2023-04-29T03:39:11;95933.19;;;10.76;100.00
69411;BME280;56604;48.652;9.194;2023-04-29T03:41:37;95932.63;;;10.69;100.00
69411;BME280;56604;48.652;9.194;2023-04-29T03:44:03;95937.34;;;10.67;100.00
69411;BME280;56604;48.652;9.194;2023-04-29T03:46:29;95933.09;;;10.61;100.00
69411;BME280;56604;48.652;9.194;2023-04-29T03:48:54;95934.66;;;10.57;100.00
69411;BME280;56604;48.652;9.194;2023-04-29T03:51:22;95932.28;;;10.50;100.00
69411;BME280;56604;48.652;9.194;2023-04-29T03:53:47;95937.78;;;10.49;100.00
69411;BME280;56604;48.652;9.194;2023-04-29T03:56:13;95926.75;;;10.52;100.00
69411;BME280;56604;48.652;9.194;2023-04-29T03:58:38;95921.25;;;10.58;100.00
69411;BME280;56604;48.652;9.194;2023-04-29T04:01:03;95919.97;;;10.61;100.00
69411;BME280;56604;48.652;9.194;2023-04-29T04:03:28;95926.81;;;10.62;100.00
69411;BME280;56604;48.652;9.194;2023-04-29T04:05:54;95921.81;;;10.61;100.00
69411;BME280;56604;48.652;9.194;2023-04-29T04:08:19;95928.38;;;10.63;100.00
69411;BME280;56604;48.652;9.194;2023-04-29T04:10:44;95933.09;;;10.61;100.00
69411;BME280;56604;48.652;9.194;2023-04-29T04:13:10;95934.16;;;10.60;100.00
69411;BME280;56604;48.652;9.194;2023-04-29T04:15:35;95931.28;;;10.62;100.00
69411;BME280;56604;48.652;9.194;2023-04-29T04:18:00;95939.19;;;10.72;100.00
69411;BME280;56604;48.652;9.194;2023-04-29T04:20:26;95937.13;;;10.79;100.00
69411;BME280;56604;48.652;9.194;2023-04-29T04:22:51;95939.56;;;11.01;100.00
69411;BME280;56604;48.652;9.194;2023-04-29T04:25:18;95938.56;;;11.22;100.00
69411;BME280;56604;48.652;9.194;2023-04-29T04:27:44;95948.84;;;11.29;100.00
69411;BME280;56604;48.652;9.194;2023-04-29T04:30:10;95937.06;;;11.73;99.91
69411;BME280;56604;48.652;9.194;2023-04-29T04:32:35;95946.56;;;11.94;97.59
69411;BME280;56604;48.652;9.194;2023-04-29T04:35:00;95956.81;;;12.11;96.61
69411;BME280;56604;48.652;9.194;2023-04-29T04:37:26;95952.81;;;12.39;94.92
69411;BME280;56604;48.652;9.194;2023-04-29T04:39:52;95954.31;;;12.71;92.98
69411;BME280;56604;48.652;9.194;2023-04-29T04:42:17;95952.56;;;13.11;91.76
69411;BME280;56604;48.652;9.194;2023-04-29T04:44:43;95961.50;;;13.15;90.90
69411;BME280;56604;48.652;9.194;2023-04-29T04:47:08;95962.31;;;13.99;87.39
69411;BME280;56604;48.652;9.194;2023-04-29T04:49:33;95962.72;;;14.11;85.92
69411;BME280;56604;48.652;9.194;2023-04-29T04:51:58;95964.16;;;13.99;85.54
69411;BME280;56604;48.652;9.194;2023-04-29T04:54:24;95979.28;;;14.80;82.43
69411;BME280;56604;48.652;9.194;2023-04-29T04:56:49;95986.66;;;14.83;81.35
69411;BME280;56604;48.652;9.194;2023-04-29T04:59:16;95990.19;;;15.41;79.02
69411;BME280;56604;48.652;9.194;2023-04-29T05:01:41;95991.41;;;15.67;77.14
69411;BME280;56604;48.652;9.194;2023-04-29T05:04:06;95988.88;;;16.14;74.82
69411;BME280;56604;48.652;9.194;2023-04-29T05:06:32;95996.56;;;17.03;72.58
69411;BME280;56604;48.652;9.194;2023-04-29T05:08:57;96001.19;;;17.12;70.96
69411;BME280;56604;48.652;9.194;2023-04-29T05:11:22;96000.19;;;17.71;69.13
69411;BME280;56604;48.652;9.194;2023-04-29T05:13:48;96004.81;;;18.16;67.71
69411;BME280;56604;48.652;9.194;2023-04-29T05:16:13;96001.31;;;18.69;65.40
69411;BME280;56604;48.652;9.194;2023-04-29T05:18:39;96007.63;;;19.70;60.99
69411;BME280;56604;48.652;9.194;2023-04-29T05:21:04;96012.25;;;20.60;58.38
69411;BME280;56604;48.652;9.194;2023-04-29T05:23:30;96011.38;;;20.95;56.89
69411;BME280;56604;48.652;9.194;2023-04-29T05:25:55;96018.69;;;20.51;58.14
69411;BME280;56604;48.652;9.194;2023-04-29T05:28:21;96016.31;;;20.75;57.45
69411;BME280;56604;48.652;9.194;2023-04-29T05:30:49;96025.50;;;20.95;56.40
69411;BME280;56604;48.652;9.194;2023-04-29T05:33:15;96026.56;;;21.62;54.44
69411;BME280;56604;48.652;9.194;2023-04-29T05:35:40;96030.56;;;21.56;54.67
69411;BME280;56604;48.652;9.194;2023-04-29T05:38:05;96029.94;;;22.22;52.20
69411;BME280;56604;48.652;9.194;2023-04-29T05:40:31;96034.59;;;22.46;50.54
69411;BME280;56604;48.652;9.194;2023-04-29T05:42:56;96045.09;;;22.18;51.63
69411;BME280;56604;48.652;9.194;2023-04-29T05:45:21;96041.56;;;21.25;53.45
69411;BME280;56604;48.652;9.194;2023-04-29T05:47:47;96050.19;;;20.92;54.89
69411;BME280;56604;48.652;9.194;2023-04-29T05:50:12;96053.41;;;22.16;52.00
69411;BME280;56604;48.652;9.194;2023-04-29T05:52:38;96062.56;;;21.73;51.26
69411;BME280;56604;48.652;9.194;2023-04-29T05:55:03;96065.69;;;21.75;52.65
69411;BME280;56604;48.652;9.194;2023-04-29T05:57:29;96066.56;;;21.20;54.24
69411;BME280;56604;48.652;9.194;2023-04-29T05:59:54;96075.50;;;20.86;53.85
69411;BME280;56604;48.652;9.194;2023-04-29T06:02:20;96078.53;;;19.71;56.47
69411;BME280;56604;48.652;9.194;2023-04-29T06:04:45;96083.31;;;19.52;58.08
69411;BME280;56604;48.652;9.194;2023-04-29T06:07:12;96085.00;;;19.30;58.87
69411;BME280;56604;48.652;9.194;2023-04-29T06:09:37;96088.13;;;19.32;59.35
69411;BME280;56604;48.652;9.194;2023-04-29T06:12:03;96085.84;;;19.08;59.34
69411;BME280;56604;48.652;9.194;2023-04-29T06:14:29;96087.16;;;19.77;57.72
69411;BME280;56604;48.652;9.194;2023-04-29T06:16:54;96088.88;;;20.95;54.90
69411;BME280;56604;48.652;9.194;2023-04-29T06:19:20;96088.56;;;21.34;54.84
69411;BME280;56604;48.652;9.194;2023-04-29T06:21:45;96087.06;;;22.80;50.28
69411;BME280;56604;48.652;9.194;2023-04-29T06:24:10;96094.81;;;22.61;49.89
69411;BME280;56604;48.652;9.194;2023-04-29T06:26:36;96096.03;;;22.97;48.38
69411;BME280;56604;48.652;9.194;2023-04-29T06:29:01;96103.88;;;22.35;48.90
69411;BME280;56604;48.652;9.194;2023-04-29T06:31:26;96109.19;;;23.84;46.81
69411;BME280;56604;48.652;9.194;2023-04-29T06:33:52;96116.31;;;21.60;50.43
69411;BME280;56604;48.652;9.194;2023-04-29T06:36:17;96121.66;;;21.60;50.67
69411;BME280;56604;48.652;9.194;2023-04-29T06:38:43;96124.06;;;21.52;51.55
69411;BME280;56604;48.652;9.194;2023-04-29T06:41:08;96126.97;;;21.98;49.97
69411;BME280;56604;48.652;9.194;2023-04-29T06:43:35;96124.09;;;21.44;53.22
69411;BME280;56604;48.652;9.194;2023-04-29T06:46:01;96119.72;;;21.98;50.52
69411;BME280;56604;48.652;9.194;2023-04-29T06:48:27;96130.59;;;21.17;52.13
69411;BME280;56604;48.652;9.194;2023-04-29T06:50:54;96134.81;;;20.53;54.46
69411;BME280;56604;48.652;9.194;2023-04-29T06:53:20;96143.34;;;19.81;56.71
69411;BME280;56604;48.652;9.194;2023-04-29T06:55:45;96127.25;;;20.73;54.06
69411;BME280;56604;48.652;9.194;2023-04-29T06:58:17;96130.53;;;21.34;50.53
69411;BME280;56604;48.652;9.194;2023-04-29T07:00:47;96128.78;;;22.69;49.02
69411;BME280;56604;48.652;9.194;2023-04-29T07:03:13;96131.41;;;22.78;48.82
69411;BME280;56604;48.652;9.194;2023-04-29T07:05:39;96140.13;;;21.82;50.42
69411;BME280;56604;48.652;9.194;2023-04-29T07:08:06;96147.56;;;21.38;51.36
69411;BME280;56604;48.652;9.194;2023-04-29T07:10:31;96133.91;;;22.41;48.36
69411;BME280;56604;48.652;9.194;2023-04-29T07:12:57;96142.50;;;21.45;49.20
69411;BME280;56604;48.652;9.194;2023-04-29T07:15:24;96141.44;;;21.67;50.01
69411;BME280;56604;48.652;9.194;2023-04-29T07:17:50;96142.50;;;22.05;48.98
69411;BME280;56604;48.652;9.194;2023-04-29T07:20:15;96149.53;;;23.26;47.29
69411;BME280;56604;48.652;9.194;2023-04-29T07:22:41;96145.03;;;23.18;46.65
69411;BME280;56604;48.652;9.194;2023-04-29T07:25:07;96152.44;;;23.21;46.04
69411;BME280;56604;48.652;9.194;2023-04-29T07:27:33;96149.81;;;23.95;43.59
69411;BME280;56604;48.652;9.194;2023-04-29T07:29:59;96163.09;;;23.54;42.61
69411;BME280;56604;48.652;9.194;2023-04-29T07:32:27;96159.00;;;22.90;44.50
69411;BME280;56604;48.652;9.194;2023-04-29T07:34:53;96154.00;;;22.89;44.57
69411;BME280;56604;48.652;9.194;2023-04-29T07:37:18;96152.88;;;23.23;42.75
69411;BME280;56604;48.652;9.194;2023-04-29T07:39:44;96147.31;;;23.41;44.27
69411;BME280;56604;48.652;9.194;2023-04-29T07:42:09;96152.22;;;24.37;42.75
69411;BME280;56604;48.652;9.194;2023-04-29T07:44:35;96153.56;;;24.18;42.07
69411;BME280;56604;48.652;9.194;2023-04-29T07:47:00;96162.28;;;23.29;43.94
69411;BME280;56604;48.652;9.194;2023-04-29T07:49:26;96167.72;;;22.87;44.23
69411;BME280;56604;48.652;9.194;2023-04-29T07:51:51;96169.06;;;22.39;44.73
69411;BME280;56604;48.652;9.194;2023-04-29T07:54:17;96171.31;;;22.08;45.80
69411;BME280;56604;48.652;9.194;2023-04-29T07:56:44;96172.28;;;21.26;47.71
69411;BME280;56604;48.652;9.194;2023-04-29T07:59:09;96178.25;;;21.23;48.77
69411;BME280;56604;48.652;9.194;2023-04-29T08:01:35;96164.47;;;21.60;48.02
69411;BME280;56604;48.652;9.194;2023-04-29T08:04:00;96170.13;;;22.26;46.21
69411;BME280;56604;48.652;9.194;2023-04-29T08:06:25;96164.13;;;23.17;44.47
69411;BME280;56604;48.652;9.194;2023-04-29T08:08:51;96171.19;;;23.21;43.59
69411;BME280;56604;48.652;9.194;2023-04-29T08:11:17;96171.88;;;23.18;43.91
69411;BME280;56604;48.652;9.194;2023-04-29T08:13:43;96176.66;;;22.37;44.94
69411;BME280;56604;48.652;9.194;2023-04-29T08:16:09;96196.06;;;21.02;47.22
69411;BME280;56604;48.652;9.194;2023-04-29T08:18:34;96188.34;;;21.18;47.32
69411;BME280;56604;48.652;9.194;2023-04-29T08:21:00;96191.41;;;20.55;48.73
69411;BME280;56604;48.652;9.194;2023-04-29T08:23:26;96195.16;;;20.89;48.10
69411;BME280;56604;48.652;9.194;2023-04-29T08:25:51;96183.03;;;22.24;46.46
69411;BME280;56604;48.652;9.194;2023-04-29T08:28:19;96179.56;;;24.14;42.45
69411;BME280;56604;48.652;9.194;2023-04-29T08:30:44;96185.47;;;24.32;41.56
69411;BME280;56604;48.652;9.194;2023-04-29T08:33:10;96182.00;;;24.44;41.37
69411;BME280;56604;48.652;9.194;2023-04-29T08:35:37;96183.53;;;24.57;39.62
69411;BME280;56604;48.652;9.194;2023-04-29T08:38:04;96186.59;;;24.19;41.11
69411;BME280;56604;48.652;9.194;2023-04-29T08:40:33;96188.53;;;23.82;40.90
69411;BME280;56604;48.652;9.194;2023-04-29T08:42:58;96186.84;;;22.44;43.04
69411;BME280;56604;48.652;9.194;2023-04-29T08:45:26;96183.31;;;22.01;43.61
69411;BME280;56604;48.652;9.194;2023-04-29T08:47:53;96189.44;;;21.17;46.20
69411;BME280;56604;48.652;9.194;2023-04-29T08:50:20;96177.31;;;21.19;45.59
69411;BME280;56604;48.652;9.194;2023-04-29T08:52:46;96180.16;;;21.70;44.63
69411;BME280;56604;48.652;9.194;2023-04-29T08:55:11;96187.63;;;21.55;45.00
69411;BME280;56604;48.652;9.194;2023-04-29T08:57:37;96191.34;;;21.07;45.63
69411;BME280;56604;48.652;9.194;2023-04-29T09:00:08;96193.69;;;21.18;46.03
69411;BME280;56604;48.652;9.194;2023-04-29T09:02:44;96189.16;;;20.57;47.25
69411;BME280;56604;48.652;9.194;2023-04-29T09:05:11;96191.38;;;20.90;45.93
69411;BME280;56604;48.652;9.194;2023-04-29T09:07:37;96193.53;;;20.18;47.57
69411;BME280;56604;48.652;9.194;2023-04-29T09:10:04;96190.88;;;20.36;47.86
69411;BME280;56604;48.652;9.194;2023-04-29T09:12:30;96191.69;;;20.80;46.83
69411;BME280;56604;48.652;9.194;2023-04-29T09:14:56;96193.34;;;20.15;48.95
69411;BME280;56604;48.652;9.194;2023-04-29T09:17:41;96185.38;;;20.24;48.11
69411;BME280;56604;48.652;9.194;2023-04-29T09:23:06;96181.88;;;21.19;46.29
69411;BME280;56604;48.652;9.194;2023-04-29T09:25:32;96180.09;;;21.87;47.15
69411;BME280;56604;48.652;9.194;2023-04-29T09:27:57;96174.94;;;22.33;45.54
69411;BME280;56604;48.652;9.194;2023-04-29T09:30:23;96177.16;;;22.31;44.79
69411;BME280;56604;48.652;9.194;2023-04-29T09:33:04;96193.28;;;20.81;47.42
69411;BME280;56604;48.652;9.194;2023-04-29T09:35:30;96197.81;;;20.54;47.34
69411;BME280;56604;48.652;9.194;2023-04-29T09:40:35;96193.84;;;20.26;49.55
69411;BME280;56604;48.652;9.194;2023-04-29T09:43:00;96190.91;;;19.79;49.74
69411;BME280;56604;48.652;9.194;2023-04-29T09:45:46;96197.44;;;20.04;50.50
69411;BME280;56604;48.652;9.194;2023-04-29T09:48:12;96195.69;;;20.08;52.13
69411;BME280;56604;48.652;9.194;2023-04-29T09:50:39;96192.13;;;20.38;53.69
69411;BME280;56604;48.652;9.194;2023-04-29T09:53:07;96197.69;;;19.93;53.09
69411;BME280;56604;48.652;9.194;2023-04-29T09:55:34;96190.03;;;19.29;55.41
69411;BME280;56604;48.652;9.194;2023-04-29T09:58:00;96185.78;;;19.99;54.35
69411;BME280;56604;48.652;9.194;2023-04-29T10:00:30;96195.09;;;19.08;56.01
69411;BME280;56604;48.652;9.194;2023-04-29T10:02:58;96195.63;;;19.50;53.81
69411;BME280;56604;48.652;9.194;2023-04-29T10:05:27;96197.31;;;18.34;55.89
69411;BME280;56604;48.652;9.194;2023-04-29T10:07:53;96199.94;;;17.97;57.77
69411;BME280;56604;48.652;9.194;2023-04-29T10:10:20;96193.06;;;17.83;58.09
69411;BME280;56604;48.652;9.194;2023-04-29T10:12:46;96199.84;;;18.03;57.99
69411;BME280;56604;48.652;9.194;2023-04-29T10:15:38;96193.34;;;17.81;58.29
69411;BME280;56604;48.652;9.194;2023-04-29T10:18:19;96199.09;;;17.56;60.21
69411;BME280;56604;48.652;9.194;2023-04-29T10:20:46;96203.28;;;18.17;59.10
69411;BME280;56604;48.652;9.194;2023-04-29T10:23:16;96191.06;;;18.16;58.63
69411;BME280;56604;48.652;9.194;2023-04-29T10:25:43;96189.09;;;18.22;58.17
69411;BME280;56604;48.652;9.194;2023-04-29T10:28:14;96196.66;;;18.28;58.52
69411;BME280;56604;48.652;9.194;2023-04-29T10:30:44;96208.59;;;17.62;58.83
69411;BME280;56604;48.652;9.194;2023-04-29T10:33:15;96197.13;;;17.47;58.23
69411;BME280;56604;48.652;9.194;2023-04-29T10:35:42;96199.09;;;17.56;59.69
69411;BME280;56604;48.652;9.194;2023-04-29T10:38:23;96194.28;;;17.44;59.42
69411;BME280;56604;48.652;9.194;2023-04-29T10:40:51;96188.28;;;17.66;58.88
69411;BME280;56604;48.652;9.194;2023-04-29T10:43:24;96183.34;;;17.73;58.99
69411;BME280;56604;48.652;9.194;2023-04-29T10:46:16;96181.31;;;18.48;56.35
69411;BME280;56604;48.652;9.194;2023-04-29T10:48:43;96188.38;;;18.88;55.98
69411;BME280;56604;48.652;9.194;2023-04-29T10:51:08;96186.56;;;18.98;53.10
69411;BME280;56604;48.652;9.194;2023-04-29T10:53:34;96187.03;;;18.77;53.76
69411;BME280;56604;48.652;9.194;2023-04-29T10:56:09;96187.16;;;19.17;52.72
69411;BME280;56604;48.652;9.194;2023-04-29T10:58:38;96181.53;;;18.96;52.62
69411;BME280;56604;48.652;9.194;2023-04-29T11:01:05;96182.72;;;18.45;54.14
69411;BME280;56604;48.652;9.194;2023-04-29T11:06:13;96187.81;;;18.19;55.29
69411;BME280;56604;48.652;9.194;2023-04-29T11:08:38;96174.75;;;18.31;54.06
69411;BME280;56604;48.652;9.194;2023-04-29T11:11:08;96182.97;;;17.52;56.12
69411;BME280;56604;48.652;9.194;2023-04-29T11:13:38;96173.34;;;17.84;55.34
69411;BME280;56604;48.652;9.194;2023-04-29T11:16:10;96179.25;;;17.81;54.84
69411;BME280;56604;48.652;9.194;2023-04-29T11:19:07;96180.94;;;18.40;55.29
69411;BME280;56604;48.652;9.194;2023-04-29T11:21:35;96182.81;;;18.76;52.85
69411;BME280;56604;48.652;9.194;2023-04-29T11:24:01;96173.56;;;18.60;52.27
69411;BME280;56604;48.652;9.194;2023-04-29T11:26:27;96178.13;;;18.23;52.99
69411;BME280;56604;48.652;9.194;2023-04-29T11:28:55;96171.66;;;18.02;54.40
69411;BME280;56604;48.652;9.194;2023-04-29T11:31:25;96171.94;;;17.72;56.01
69411;BME280;56604;48.652;9.194;2023-04-29T11:33:52;96167.81;;;17.52;55.55
69411;BME280;56604;48.652;9.194;2023-04-29T11:36:20;96171.94;;;17.59;54.84
69411;BME280;56604;48.652;9.194;2023-04-29T11:38:46;96168.97;;;17.33;56.06
69411;BME280;56604;48.652;9.194;2023-04-29T11:41:11;96168.59;;;17.39;56.93
69411;BME280;56604;48.652;9.194;2023-04-29T11:43:37;96170.19;;;17.68;55.82
69411;BME280;56604;48.652;9.194;2023-04-29T11:46:11;96168.41;;;18.05;54.31
69411;BME280;56604;48.652;9.194;2023-04-29T11:48:36;96176.22;;;18.37;52.99
69411;BME280;56604;48.652;9.194;2023-04-29T11:51:01;96167.69;;;18.49;53.64
69411;BME280;56604;48.652;9.194;2023-04-29T11:53:27;96180.34;;;18.43;51.94
69411;BME280;56604;48.652;9.194;2023-04-29T11:55:53;96178.72;;;18.56;52.83
69411;BME280;56604;48.652;9.194;2023-04-29T11:58:23;96181.78;;;18.27;52.76
69411;BME280;56604;48.652;9.194;2023-04-29T12:00:49;96172.06;;;17.81;52.98
69411;BME280;56604;48.652;9.194;2023-04-29T12:03:17;96172.06;;;17.95;53.25
69411;BME280;56604;48.652;9.194;2023-04-29T12:05:53;96183.47;;;17.95;53.19
69411;BME280;56604;48.652;9.194;2023-04-29T12:08:22;96170.53;;;18.30;52.06
69411;BME280;56604;48.652;9.194;2023-04-29T12:10:48;96175.00;;;18.43;51.82
69411;BME280;56604;48.652;9.194;2023-04-29T12:13:16;96181.50;;;18.51;50.01
69411;BME280;56604;48.652;9.194;2023-04-29T12:15:42;96173.72;;;18.77;50.70
69411;BME280;56604;48.652;9.194;2023-04-29T12:18:08;96177.22;;;18.28;50.48
69411;BME280;56604;48.652;9.194;2023-04-29T12:20:33;96177.69;;;18.66;50.73
69411;BME280;56604;48.652;9.194;2023-04-29T12:25:37;96175.72;;;17.99;53.21
69411;BME280;56604;48.652;9.194;2023-04-29T12:28:03;96173.88;;;18.36;50.61
69411;BME280;56604;48.652;9.194;2023-04-29T12:30:28;96179.66;;;18.02;50.46
69411;BME280;56604;48.652;9.194;2023-04-29T12:32:54;96174.13;;;17.84;51.29
69411;BME280;56604;48.652;9.194;2023-04-29T12:35:19;96170.72;;;18.34;51.98
69411;BME280;56604;48.652;9.194;2023-04-29T12:37:49;96176.16;;;18.87;50.95
69411;BME280;56604;48.652;9.194;2023-04-29T12:40:15;96178.50;;;19.12;50.61
69411;BME280;56604;48.652;9.194;2023-04-29T12:42:41;96177.25;;;19.49;50.72
69411;BME280;56604;48.652;9.194;2023-04-29T12:45:28;96180.97;;;19.30;52.11
69411;BME280;56604;48.652;9.194;2023-04-29T12:47:55;96183.69;;;19.17;53.86
69411;BME280;56604;48.652;9.194;2023-04-29T12:50:29;96187.03;;;19.00;54.46
69411;BME280;56604;48.652;9.194;2023-04-29T12:52:55;96184.44;;;18.50;55.09
69411;BME280;56604;48.652;9.194;2023-04-29T12:55:20;96178.06;;;18.73;54.90
69411;BME280;56604;48.652;9.194;2023-04-29T12:57:46;96185.13;;;18.33;56.15
69411;BME280;56604;48.652;9.194;2023-04-29T13:00:12;96187.31;;;18.17;55.59
69411;BME280;56604;48.652;9.194;2023-04-29T13:02:37;96192.25;;;17.68;56.60
69411;BME280;56604;48.652;9.194;2023-04-29T13:05:03;96186.53;;;18.03;55.47
69411;BME280;56604;48.652;9.194;2023-04-29T13:07:28;96184.75;;;18.12;57.14
69411;BME280;56604;48.652;9.194;2023-04-29T13:09:53;96189.84;;;17.25;60.10
69411;BME280;56604;48.652;9.194;2023-04-29T13:12:19;96193.03;;;17.69;55.99